Time;durP1;ratioP1;P1;durP2;ratioP2;P2;SDS_P1;SDS_P2;PMS_P1;PMS_P2;Temp;Humidity;BMP_temperature;BMP_pressure;BME280_temperature;BME280_humidity;BME280_pressure;Samples;Min_cycle;Max_cycle;Signal;HPM_P1;HPM_P2
2023/10/17 00:01:04;;;;;;;3.83;1.30;;;6.00;99.90;;;;;;5026485;28;20051;-73
2023/10/17 00:03:30;;;;;;;3.33;1.42;;;6.00;99.90;;;;;;5037364;28;20041;-73
2023/10/17 00:05:56;;;;;;;2.97;1.50;;;6.00;99.90;;;;;;5048238;28;20053;-77
2023/10/17 00:08:22;;;;;;;4.38;1.73;;;5.90;99.90;;;;;;5027044;28;20068;-77
2023/10/17 00:10:49;;;;;;;4.00;1.80;;;5.90;99.90;;;;;;5043936;28;20072;-77
2023/10/17 00:13:38;;;;;;;7.82;3.35;;;5.90;99.90;;;;;;5031894;28;20553;-77
2023/10/17 00:16:12;;;;;;;6.70;3.92;;;6.00;99.90;;;;;;5046522;28;20530;-77
2023/10/17 00:18:38;;;;;;;5.03;2.72;;;5.80;99.90;;;;;;5035862;28;20059;-77
2023/10/17 00:21:16;;;;;;;5.45;3.45;;;5.90;99.90;;;;;;5024379;28;20467;-77
2023/10/17 00:23:42;;;;;;;5.32;3.10;;;5.90;99.90;;;;;;5041776;28;20060;-77
2023/10/17 00:26:09;;;;;;;6.15;3.45;;;5.80;99.90;;;;;;5022116;28;20048;-77
2023/10/17 00:28:35;;;;;;;7.47;3.53;;;5.90;99.90;;;;;;5033464;28;20098;-77
2023/10/17 00:31:04;;;;;;;4.00;2.60;;;5.90;99.90;;;;;;5027913;28;20124;-77
2023/10/17 00:33:32;;;;;;;4.45;2.40;;;5.90;99.90;;;;;;5045886;28;20041;-76
2023/10/17 00:36:02;;;;;;;4.28;2.35;;;5.90;99.90;;;;;;5043545;28;20049;-75
2023/10/17 00:38:35;;;;;;;4.82;2.72;;;5.90;99.90;;;;;;5025728;28;20046;-75
2023/10/17 00:41:04;;;;;;;5.03;2.70;;;5.90;99.90;;;;;;5037385;28;20080;-76
2023/10/17 00:43:31;;;;;;;4.93;2.15;;;5.90;99.90;;;;;;5041270;28;20522;-76
2023/10/17 00:45:57;;;;;;;3.80;2.28;;;5.90;99.90;;;;;;5037493;28;20084;-75
2023/10/17 00:48:25;;;;;;;4.78;2.85;;;5.90;99.90;;;;;;5028322;28;20514;-75
2023/10/17 00:51:06;;;;;;;5.57;3.25;;;5.90;99.90;;;;;;5039288;28;20041;-75
2023/10/17 00:53:32;;;;;;;7.43;2.20;;;5.80;99.90;;;;;;5039717;28;20041;-76
2023/10/17 00:55:59;;;;;;;5.03;2.80;;;5.80;99.90;;;;;;5033726;28;20097;-75
2023/10/17 00:58:27;;;;;;;11.38;2.60;;;5.80;99.90;;;;;;5038989;28;20049;-77
2023/10/17 01:01:09;;;;;;;5.13;2.78;;;5.70;99.90;;;;;;5025622;28;20626;-76
2023/10/17 01:03:43;;;;;;;4.70;2.45;;;5.80;99.90;;;;;;5036636;28;20045;-76
2023/10/17 01:06:21;;;;;;;4.05;2.40;;;5.70;99.90;;;;;;5030129;28;20458;-76
2023/10/17 01:08:50;;;;;;;5.05;2.60;;;5.70;99.90;;;;;;5039536;28;20041;-76
2023/10/17 01:11:27;;;;;;;3.67;2.58;;;5.70;99.90;;;;;;5042240;28;20033;-76
2023/10/17 01:13:54;;;;;;;6.32;2.90;;;5.60;99.90;;;;;;5036337;28;20110;-76
2023/10/17 01:16:21;;;;;;;4.53;2.50;;;5.60;99.90;;;;;;5044225;28;20101;-76
2023/10/17 01:18:47;;;;;;;5.50;2.50;;;5.60;99.90;;;;;;5037687;28;20049;-76
2023/10/17 01:21:14;;;;;;;5.28;2.47;;;5.70;99.90;;;;;;5036397;28;20100;-76
2023/10/17 01:23:40;;;;;;;4.90;2.20;;;5.60;99.90;;;;;;5040538;28;20045;-76
2023/10/17 01:26:12;;;;;;;4.55;2.20;;;5.60;99.90;;;;;;5028887;28;20037;-76
2023/10/17 01:28:38;;;;;;;7.93;2.78;;;5.60;99.90;;;;;;5034486;28;20423;-72
2023/10/17 01:31:05;;;;;;;3.80;2.55;;;5.70;99.90;;;;;;5031611;28;21069;-73
2023/10/17 01:33:31;;;;;;;5.10;2.95;;;5.70;99.90;;;;;;5045145;28;20077;-72
2023/10/17 01:35:58;;;;;;;6.00;3.25;;;5.70;99.90;;;;;;5044152;28;20060;-73
2023/10/17 01:38:26;;;;;;;6.20;2.92;;;5.80;99.90;;;;;;5034588;28;20049;-72
2023/10/17 01:41:01;;;;;;;5.63;3.15;;;5.80;99.90;;;;;;5041146;28;20094;-72
2023/10/17 01:43:37;;;;;;;7.43;3.50;;;5.70;99.90;;;;;;5053501;28;20503;-72
2023/10/17 01:46:05;;;;;;;6.07;4.60;;;5.70;99.90;;;;;;5030197;28;20055;-72
2023/10/17 01:48:32;;;;;;;9.10;5.25;;;5.70;99.90;;;;;;5041828;28;20045;-72
2023/10/17 01:51:06;;;;;;;10.00;6.15;;;5.70;99.90;;;;;;5033355;28;20053;-73
2023/10/17 01:53:38;;;;;;;7.78;5.47;;;5.70;99.90;;;;;;5051899;28;20055;-72
2023/10/17 01:56:14;;;;;;;10.63;8.25;;;5.70;99.90;;;;;;5032932;28;20052;-73
2023/10/17 01:58:50;;;;;;;16.25;14.45;;;5.60;99.90;;;;;;5013712;28;20041;-72
2023/10/17 02:01:29;;;;;;;15.63;13.73;;;5.50;99.90;;;;;;5043900;28;20047;-73
2023/10/17 02:04:05;;;;;;;14.10;12.35;;;5.60;99.90;;;;;;5038552;28;20045;-72
2023/10/17 02:06:33;;;;;;;14.82;12.05;;;5.60;99.90;;;;;;5043175;28;20041;-72
2023/10/17 02:09:18;;;;;;;22.02;16.73;;;5.60;99.90;;;;;;5034786;28;20048;-72
2023/10/17 02:11:50;;;;;;;16.77;13.15;;;5.50;99.90;;;;;;5042538;28;20049;-72
2023/10/17 02:14:16;;;;;;;16.65;14.95;;;5.50;99.90;;;;;;5024133;28;20090;-72
2023/10/17 02:16:41;;;;;;;19.25;14.45;;;5.40;99.90;;;;;;5023267;28;20466;-72
2023/10/17 02:19:08;;;;;;;17.65;15.85;;;5.50;99.90;;;;;;5043029;28;20507;-72
2023/10/17 02:21:40;;;;;;;14.30;12.38;;;5.30;99.90;;;;;;5050086;28;20053;-72
2023/10/17 02:24:06;;;;;;;14.32;12.80;;;5.20;99.90;;;;;;5039313;28;20048;-72
2023/10/17 02:26:42;;;;;;;16.13;12.55;;;5.20;99.90;;;;;;5040373;28;20111;-72
2023/10/17 02:29:11;;;;;;;15.20;12.63;;;5.20;99.90;;;;;;5036930;28;20139;-72
2023/10/17 02:31:37;;;;;;;15.20;11.90;;;5.10;99.90;;;;;;5045973;28;20139;-72
2023/10/17 02:34:10;;;;;;;17.77;13.13;;;5.10;99.90;;;;;;5032437;28;20614;-72
2023/10/17 02:36:36;;;;;;;21.42;14.07;;;5.10;99.90;;;;;;5014915;28;20091;-72
2023/10/17 02:39:03;;;;;;;27.67;14.23;;;5.00;99.90;;;;;;5023886;28;20041;-72
2023/10/17 02:41:31;;;;;;;13.50;11.35;;;4.90;99.90;;;;;;5032602;28;20049;-72
2023/10/17 02:43:57;;;;;;;15.15;12.48;;;4.90;99.90;;;;;;5044148;28;20060;-72
2023/10/17 02:46:26;;;;;;;14.27;12.35;;;4.80;99.90;;;;;;5039548;28;20187;-72
2023/10/17 02:48:56;;;;;;;10.98;8.52;;;4.80;99.90;;;;;;5037725;28;20049;-72
2023/10/17 02:53:53;;;;;;;17.05;13.20;;;4.70;99.90;;;;;;5031628;28;20049;-72
2023/10/17 02:56:19;;;;;;;12.35;9.32;;;4.70;99.90;;;;;;5043186;28;20094;-72
2023/10/17 02:59:06;;;;;;;10.13;8.15;;;4.70;99.90;;;;;;5039369;28;20495;-72
2023/10/17 03:01:33;;;;;;;8.68;7.43;;;4.70;99.90;;;;;;5055275;28;20056;-73
2023/10/17 03:04:09;;;;;;;9.10;7.25;;;4.70;99.90;;;;;;5040089;28;20107;-72
2023/10/17 03:06:41;;;;;;;8.57;7.38;;;4.80;99.90;;;;;;5023868;28;20052;-72
2023/10/17 03:14:39;;;;;;;9.05;6.85;;;4.80;99.90;;;;;;5033336;28;20115;-72
2023/10/17 03:17:08;;;;;;;10.45;6.50;;;4.80;99.90;;;;;;5023260;28;20127;-72
2023/10/17 03:19:35;;;;;;;9.80;6.32;;;4.80;99.90;;;;;;5042026;28;20170;-72
2023/10/17 03:24:51;;;;;;;8.00;6.93;;;4.80;99.90;;;;;;5037253;28;20045;-72
2023/10/17 03:27:33;;;;;;;17.97;11.40;;;4.80;99.90;;;;;;5041954;28;20060;-72
2023/10/17 03:30:05;;;;;;;15.80;11.27;;;4.70;99.90;;;;;;5022977;28;20791;-72
2023/10/17 03:32:33;;;;;;;11.73;8.43;;;4.60;99.90;;;;;;5043107;28;20056;-72
2023/10/17 03:35:02;;;;;;;13.32;8.05;;;4.60;99.90;;;;;;5038539;28;20924;-72
2023/10/17 03:37:29;;;;;;;16.23;11.13;;;4.60;99.90;;;;;;5019255;28;20049;-72
2023/10/17 03:40:29;;;;;;;11.07;8.57;;;4.60;99.90;;;;;;5023932;28;20048;-72
2023/10/17 03:42:53;;;;;;;9.55;7.82;;;4.50;99.90;;;;;;5036987;28;20124;-72
2023/10/17 03:48:04;;;;;;;10.75;8.40;;;4.50;99.90;;;;;;5038704;28;20301;-72
2023/10/17 03:50:48;;;;;;;11.05;9.50;;;4.40;99.90;;;;;;5036152;28;20072;-72
2023/10/17 03:53:30;;;;;;;8.75;7.82;;;4.50;99.90;;;;;;5035187;28;20518;-72
2023/10/17 03:56:00;;;;;;;12.65;8.55;;;4.50;99.90;;;;;;5043810;28;20048;-72
2023/10/17 04:00:58;;;;;;;10.13;6.90;;;4.50;99.90;;;;;;5042207;28;20444;-72
2023/10/17 04:03:30;;;;;;;16.65;11.27;;;4.50;99.90;;;;;;5029559;28;20314;-72
2023/10/17 04:08:37;;;;;;;8.38;6.90;;;4.60;99.90;;;;;;5043672;28;20143;-72
2023/10/17 04:13:55;;;;;;;13.75;8.32;;;4.60;99.90;;;;;;5044265;28;20045;-72
2023/10/17 04:16:33;;;;;;;8.43;7.30;;;4.70;99.90;;;;;;5029835;28;20072;-72
2023/10/17 04:19:16;;;;;;;10.80;7.35;;;4.70;99.90;;;;;;5034158;28;20336;-71
2023/10/17 04:24:47;;;;;;;21.63;13.43;;;4.80;99.90;;;;;;5025120;28;20141;-73
2023/10/17 04:27:19;;;;;;;9.20;6.90;;;4.80;99.90;;;;;;5033350;28;20049;-72
2023/10/17 04:29:53;;;;;;;8.35;7.03;;;4.90;99.90;;;;;;5034568;28;20593;-73
2023/10/17 04:32:20;;;;;;;10.70;7.45;;;4.90;99.90;;;;;;5026950;28;20500;-72
2023/10/17 04:34:46;;;;;;;12.68;9.50;;;5.00;99.90;;;;;;5022228;28;20056;-72
2023/10/17 04:37:24;;;;;;;16.75;13.00;;;5.10;99.90;;;;;;5031189;28;20159;-72
2023/10/17 04:39:56;;;;;;;12.05;9.70;;;5.10;99.90;;;;;;5030523;28;20049;-72
2023/10/17 04:45:13;;;;;;;11.02;8.07;;;5.20;99.90;;;;;;5034153;28;20045;-73
2023/10/17 04:47:39;;;;;;;10.80;9.65;;;5.20;99.90;;;;;;5041346;28;20078;-72
2023/10/17 04:50:11;;;;;;;11.57;9.07;;;5.30;99.90;;;;;;5022181;28;20064;-73
2023/10/17 04:52:47;;;;;;;10.15;8.10;;;5.30;99.90;;;;;;5023146;28;20331;-72
2023/10/17 04:55:21;;;;;;;10.93;8.45;;;5.30;99.90;;;;;;5022977;28;20853;-72
2023/10/17 05:00:42;;;;;;;16.38;12.18;;;5.50;99.90;;;;;;5037194;28;20518;-71
2023/10/17 06:17:27;;;;;;;13.70;9.60;;;6.20;99.90;;;;;;5038309;28;20408;-74
2023/10/17 06:19:53;;;;;;;10.27;9.18;;;6.20;99.90;;;;;;5031562;28;20515;-74
2023/10/17 06:26:04;;;;;;;9.88;8.77;;;6.30;99.90;;;;;;5027280;28;20049;-74
2023/10/17 06:35:13;;;;;;;10.27;9.20;;;6.30;99.90;;;;;;5047061;28;20056;-74
2023/10/17 06:37:42;;;;;;;14.43;9.60;;;6.40;99.90;;;;;;5046953;28;20126;-74
2023/10/17 06:40:15;;;;;;;11.80;10.47;;;6.40;99.90;;;;;;5044468;28;20118;-73
2023/10/17 06:42:59;;;;;;;10.30;9.25;;;6.40;99.90;;;;;;5039114;28;20044;-76
2023/10/17 06:45:25;;;;;;;9.57;8.60;;;6.40;99.90;;;;;;5033790;28;20499;-73
2023/10/17 06:47:57;;;;;;;11.10;8.75;;;6.50;99.90;;;;;;5031687;28;20121;-74
2023/10/17 06:53:11;;;;;;;9.68;8.27;;;6.60;99.90;;;;;;5038258;28;21017;-74
2023/10/17 06:55:43;;;;;;;12.32;9.15;;;6.60;99.90;;;;;;5015220;28;20052;-74
2023/10/17 06:58:10;;;;;;;11.27;9.73;;;6.60;99.90;;;;;;5033843;28;20037;-74
2023/10/17 07:00:49;;;;;;;13.82;11.18;;;6.60;99.90;;;;;;5043949;28;20053;-74
2023/10/17 07:03:16;;;;;;;14.25;10.60;;;6.70;99.90;;;;;;5040609;28;20733;-74
2023/10/17 07:05:49;;;;;;;12.52;9.05;;;6.70;99.90;;;;;;5046129;28;20171;-74
2023/10/17 07:08:21;;;;;;;10.90;9.00;;;6.70;99.90;;;;;;5036380;28;20042;-74
2023/10/17 07:11:02;;;;;;;11.23;8.35;;;6.80;99.90;;;;;;5030123;28;20053;-74
2023/10/17 07:13:54;;;;;;;9.70;8.48;;;6.90;99.90;;;;;;5015589;28;20040;-75
2023/10/17 07:16:33;;;;;;;13.23;8.10;;;7.00;99.90;;;;;;5043091;28;20579;-75
2023/10/17 07:19:46;;;;;;;10.70;9.33;;;7.00;99.90;;;;;;5031044;28;20400;-76
2023/10/17 07:24:33;;;;;;;10.07;8.33;;;7.10;99.90;;;;;;5044953;28;20419;-75
2023/10/17 07:27:01;;;;;;;14.65;9.05;;;7.10;99.90;;;;;;5023592;28;20041;-75
2023/10/17 07:29:33;;;;;;;14.35;9.55;;;7.20;99.90;;;;;;5028805;28;20052;-75
2023/10/17 07:32:09;;;;;;;12.30;8.73;;;7.20;99.90;;;;;;5040302;28;20041;-75
2023/10/17 07:34:36;;;;;;;10.30;9.13;;;7.30;99.90;;;;;;5037830;28;20103;-76
2023/10/17 07:42:31;;;;;;;9.45;7.50;;;7.50;99.90;;;;;;5034476;28;21168;-75
2023/10/17 07:45:03;;;;;;;10.90;7.80;;;7.50;99.90;;;;;;5035290;28;20049;-75
2023/10/17 07:47:35;;;;;;;11.02;8.45;;;7.70;99.90;;;;;;5024077;28;20041;-77
2023/10/17 07:50:01;;;;;;;11.55;8.20;;;7.70;99.90;;;;;;5038781;28;20053;-75
2023/10/17 07:52:31;;;;;;;13.00;7.85;;;7.80;99.90;;;;;;5059701;28;20053;-74
2023/10/17 07:57:43;;;;;;;12.45;7.75;;;8.00;99.90;;;;;;5032101;28;20211;-76
2023/10/17 08:00:33;;;;;;;11.82;7.75;;;8.10;99.90;;;;;;5035727;28;20049;-76
2023/10/17 08:05:44;;;;;;;7.10;5.28;;;8.30;99.90;;;;;;5037592;28;20529;-76
2023/10/17 08:08:20;;;;;;;9.02;4.93;;;8.50;99.90;;;;;;5035575;28;20040;-77
2023/10/17 08:10:46;;;;;;;9.38;5.25;;;8.60;99.90;;;;;;5035363;28;20137;-77
2023/10/17 08:13:13;;;;;;;9.85;5.50;;;8.80;99.90;;;;;;5037063;28;20121;-77
2023/10/17 08:15:46;;;;;;;7.80;5.50;;;9.00;99.90;;;;;;5041352;28;20052;-77
2023/10/17 08:18:15;;;;;;;8.13;4.85;;;9.20;99.90;;;;;;5036378;28;20314;-77
2023/10/17 08:23:29;;;;;;;8.88;4.93;;;9.50;99.90;;;;;;5036105;28;20056;-76
2023/10/17 08:26:00;;;;;;;6.43;5.07;;;9.50;99.90;;;;;;5039367;28;20581;-76
2023/10/17 08:31:27;;;;;;;8.10;5.03;;;9.80;99.90;;;;;;5033401;28;20049;-76
2023/10/17 08:34:02;;;;;;;8.02;4.85;;;9.90;99.90;;;;;;5037511;28;20505;-76
2023/10/17 08:36:53;;;;;;;8.40;4.40;;;10.00;99.90;;;;;;5035526;28;20175;-76
2023/10/17 08:39:52;;;;;;;7.80;4.93;;;10.00;99.90;;;;;;5038674;28;20576;-76
2023/10/17 08:42:25;;;;;;;6.47;4.22;;;10.00;99.90;;;;;;5036995;28;20076;-76
2023/10/17 08:44:53;;;;;;;6.47;4.10;;;9.90;99.90;;;;;;5038704;28;20117;-76
2023/10/17 08:47:24;;;;;;;7.55;4.10;;;9.90;99.90;;;;;;5039810;28;20051;-76
2023/10/17 08:49:54;;;;;;;6.50;4.03;;;9.90;99.90;;;;;;5023376;28;20105;-76
2023/10/17 08:52:25;;;;;;;5.35;3.85;;;9.80;99.90;;;;;;5057153;28;20037;-76
2023/10/17 08:54:53;;;;;;;8.38;3.95;;;9.80;99.90;;;;;;5042456;28;20087;-76
2023/10/17 08:57:24;;;;;;;7.30;3.60;;;9.80;99.90;;;;;;5023434;28;20037;-76
2023/10/17 09:05:27;;;;;;;7.18;3.40;;;9.80;99.90;;;;;;5041308;28;20053;-77
2023/10/17 09:07:57;;;;;;;6.93;3.25;;;9.90;99.90;;;;;;5031792;28;20064;-76
2023/10/17 09:10:36;;;;;;;7.22;3.30;;;10.00;99.90;;;;;;5040568;28;20179;-76
2023/10/17 09:15:50;;;;;;;7.75;3.15;;;10.00;99.90;;;;;;5044832;28;20060;-77
2023/10/17 09:18:23;;;;;;;7.85;3.00;;;10.10;99.90;;;;;;5055773;28;20187;-77
2023/10/17 09:20:50;;;;;;;5.18;2.63;;;10.10;99.90;;;;;;5028601;28;20058;-77
2023/10/17 09:23:28;;;;;;;6.88;2.65;;;10.20;99.90;;;;;;5037757;28;20053;-77
2023/10/17 09:25:55;;;;;;;4.38;2.67;;;10.20;99.90;;;;;;5037642;28;21459;-78
2023/10/17 09:28:25;;;;;;;5.13;2.67;;;10.30;99.90;;;;;;5041712;28;20048;-78
2023/10/17 09:31:20;;;;;;;5.53;2.75;;;10.30;99.90;;;;;;5056731;28;20045;-78
2023/10/17 09:33:48;;;;;;;6.78;2.40;;;10.40;99.90;;;;;;5037348;28;20068;-77
2023/10/17 09:36:18;;;;;;;4.80;2.40;;;10.50;99.90;;;;;;5045167;28;20051;-77
2023/10/17 09:38:44;;;;;;;4.28;2.00;;;10.50;99.90;;;;;;5056491;28;20060;-78
2023/10/17 09:41:17;;;;;;;4.35;1.80;;;10.50;99.90;;;;;;5027001;28;20500;-77
2023/10/17 09:43:45;;;;;;;5.68;2.30;;;10.60;99.90;;;;;;5055005;28;20519;-77
2023/10/17 09:46:16;;;;;;;4.10;1.70;;;10.60;99.90;;;;;;5029335;28;20041;-78
2023/10/17 09:48:43;;;;;;;3.58;1.90;;;10.60;99.90;;;;;;5027100;28;20041;-77
2023/10/17 09:51:20;;;;;;;3.97;1.67;;;10.70;99.90;;;;;;5045017;28;20040;-77
2023/10/17 09:53:53;;;;;;;4.60;1.60;;;10.80;99.90;;;;;;5041521;28;20522;-77
2023/10/17 09:56:29;;;;;;;3.92;1.13;;;10.80;99.90;;;;;;5039052;28;20044;-78
2023/10/17 09:59:02;;;;;;;4.25;1.70;;;10.80;99.90;;;;;;5035048;28;20037;-78
2023/10/17 10:01:31;;;;;;;6.70;1.27;;;10.80;99.90;;;;;;5039580;28;20491;-77
2023/10/17 10:04:01;;;;;;;2.58;0.90;;;10.80;99.90;;;;;;5042525;28;20507;-77
2023/10/17 10:06:31;;;;;;;;;;;10.90;99.90;;;;;;5040810;28;20106;-77
2023/10/17 10:09:26;;;;;;;6.65;1.17;;;10.80;99.90;;;;;;5057048;28;20417;-76
2023/10/17 10:11:52;;;;;;;3.95;1.40;;;10.90;99.90;;;;;;5014256;28;20053;-77
2023/10/17 10:14:27;;;;;;;6.47;1.23;;;10.90;99.90;;;;;;5026650;28;20122;-77
2023/10/17 10:16:59;;;;;;;5.10;1.40;;;10.90;99.90;;;;;;5040331;28;20049;-77
2023/10/17 10:19:46;;;;;;;3.58;1.15;;;11.00;99.90;;;;;;5041388;28;21000;-77
2023/10/17 10:22:13;;;;;;;4.90;1.65;;;11.00;99.90;;;;;;5056760;28;20060;-76
2023/10/17 10:24:41;;;;;;;3.42;1.05;;;11.00;99.90;;;;;;5040886;28;20372;-76
2023/10/17 10:27:11;;;;;;;4.00;1.48;;;11.00;99.90;;;;;;5024213;28;20546;-77
2023/10/17 10:29:40;;;;;;;5.30;1.10;;;11.10;99.90;;;;;;5039593;28;20144;-76
2023/10/17 10:32:27;;;;;;;4.05;1.00;;;11.10;99.90;;;;;;5039539;28;20047;-76
2023/10/17 10:34:53;;;;;;;5.15;1.20;;;11.10;99.90;;;;;;5033553;28;20060;-77
2023/10/17 10:37:21;;;;;;;3.03;1.15;;;11.10;99.90;;;;;;5034688;28;21375;-77
2023/10/17 10:42:58;;;;;;;4.22;1.40;;;11.10;99.90;;;;;;5038750;28;20471;-77
2023/10/17 10:45:31;;;;;;;4.22;1.30;;;11.10;99.90;;;;;;5042586;28;20085;-77
2023/10/17 10:47:58;;;;;;;7.65;1.50;;;11.10;99.90;;;;;;5057878;28;20143;-77
2023/10/17 10:50:26;;;;;;;4.72;1.20;;;11.10;99.90;;;;;;5025535;28;20102;-77
2023/10/17 10:52:52;;;;;;;3.30;1.15;;;11.10;99.90;;;;;;5026910;28;20589;-76
2023/10/17 10:55:17;;;;;;;3.92;1.38;;;11.10;99.90;;;;;;5042481;28;20048;-76
2023/10/17 10:57:46;;;;;;;5.22;1.40;;;11.10;99.90;;;;;;5039866;28;20503;-76
2023/10/17 11:00:15;;;;;;;4.30;1.27;;;11.10;99.90;;;;;;5023884;28;20095;-77
2023/10/17 11:02:43;;;;;;;4.47;1.23;;;11.20;99.90;;;;;;5026553;28;20040;-76
2023/10/17 11:05:14;;;;;;;5.13;1.40;;;11.30;99.90;;;;;;5022212;28;20054;-77
2023/10/17 11:07:41;;;;;;;3.53;1.08;;;11.30;99.90;;;;;;5042226;28;20054;-76
2023/10/17 11:10:10;;;;;;;4.25;1.10;;;11.30;99.90;;;;;;5040393;28;20208;-77
2023/10/17 11:12:38;;;;;;;6.13;1.40;;;11.30;99.90;;;;;;5041272;28;20041;-76
2023/10/17 11:15:12;;;;;;;6.00;1.48;;;11.30;99.90;;;;;;5037499;28;20063;-77
2023/10/17 11:17:45;;;;;;;3.65;0.90;;;11.30;99.90;;;;;;5027846;28;20550;-77
2023/10/17 11:20:18;;;;;;;4.32;1.15;;;11.30;99.90;;;;;;5022946;28;20033;-77
2023/10/17 11:22:47;;;;;;;4.22;1.50;;;11.40;99.90;;;;;;5042116;28;20059;-77
2023/10/17 11:25:27;;;;;;;3.90;1.05;;;11.40;99.90;;;;;;5023356;28;20037;-77
2023/10/17 11:27:56;;;;;;;3.30;1.23;;;11.40;99.90;;;;;;5037888;28;20051;-77
2023/10/17 11:30:32;;;;;;;3.95;1.27;;;11.50;99.90;;;;;;5020375;28;20055;-77
2023/10/17 11:33:05;;;;;;;3.75;1.23;;;11.50;99.90;;;;;;5038821;28;20756;-77
2023/10/17 11:35:34;;;;;;;3.85;0.90;;;11.60;99.90;;;;;;5042128;28;20102;-76
2023/10/17 11:38:01;;;;;;;2.97;1.17;;;11.70;99.90;;;;;;5037362;28;20048;-77
2023/10/17 11:40:46;;;;;;;4.15;1.08;;;11.70;99.90;;;;;;5025131;28;20453;-77
2023/10/17 11:43:18;;;;;;;2.67;0.88;;;11.70;99.90;;;;;;5038993;28;20482;-76
2023/10/17 11:45:45;;;;;;;5.00;1.13;;;11.70;99.90;;;;;;5024759;28;20570;-77
2023/10/17 11:48:31;;;;;;;4.32;1.50;;;11.70;99.90;;;;;;5036249;28;20299;-76
2023/10/17 11:51:04;;;;;;;4.50;1.13;;;11.60;99.90;;;;;;5038622;28;20488;-77
2023/10/17 11:53:31;;;;;;;5.18;1.10;;;11.60;99.90;;;;;;5037155;28;20045;-77
2023/10/17 11:55:58;;;;;;;1.92;0.88;;;11.70;99.90;;;;;;5058729;28;20578;-77
2023/10/17 11:58:25;;;;;;;3.17;1.10;;;11.70;99.90;;;;;;5023370;28;20041;-76
2023/10/17 12:00:59;;;;;;;2.65;1.08;;;11.80;99.90;;;;;;5039576;28;20045;-77
2023/10/17 12:03:26;;;;;;;2.00;1.20;;;11.80;99.90;;;;;;5023237;28;20064;-76
2023/10/17 12:05:53;;;;;;;3.53;1.20;;;11.70;99.90;;;;;;5040694;28;20044;-77
2023/10/17 12:08:22;;;;;;;4.50;1.13;;;11.80;99.90;;;;;;5040640;28;20569;-77
2023/10/17 12:10:53;;;;;;;4.22;1.50;;;11.80;99.90;;;;;;5035926;28;20099;-77
2023/10/17 12:13:19;;;;;;;5.20;1.13;;;11.80;99.90;;;;;;5024086;28;20130;-76
2023/10/17 12:15:45;;;;;;;4.22;1.20;;;11.80;99.90;;;;;;5023559;28;20060;-77
2023/10/17 12:18:12;;;;;;;4.15;1.40;;;11.80;99.90;;;;;;5018466;28;20044;-77
2023/10/17 12:20:42;;;;;;;3.72;1.27;;;11.80;99.90;;;;;;5023713;28;20664;-76
2023/10/17 12:23:09;;;;;;;5.00;1.20;;;11.90;99.90;;;;;;5018891;28;20347;-75
2023/10/17 12:25:36;;;;;;;3.85;1.30;;;11.90;99.90;;;;;;5037757;28;20049;-75
2023/10/17 12:28:06;;;;;;;4.75;1.30;;;11.90;99.90;;;;;;5034509;28;20111;-75
2023/10/17 12:30:37;;;;;;;4.53;1.60;;;11.90;99.90;;;;;;5038465;28;20045;-74
2023/10/17 12:33:08;;;;;;;3.97;1.67;;;11.90;99.90;;;;;;5020480;28;20053;-75
2023/10/17 12:35:34;;;;;;;5.80;1.50;;;11.80;99.90;;;;;;5041418;28;20060;-75
2023/10/17 12:38:14;;;;;;;3.22;1.52;;;11.90;99.90;;;;;;5053738;28;20364;-75
2023/10/17 12:40:42;;;;;;;3.83;1.77;;;11.90;99.90;;;;;;5025421;28;20045;-75
2023/10/17 12:43:11;;;;;;;3.35;1.27;;;11.90;99.90;;;;;;5039368;28;20080;-75
2023/10/17 12:45:38;;;;;;;4.32;1.48;;;11.90;99.90;;;;;;5038758;28;20049;-75
2023/10/17 12:48:06;;;;;;;6.07;1.85;;;11.90;99.90;;;;;;5034425;28;20041;-75
2023/10/17 12:50:33;;;;;;;3.13;1.48;;;11.90;99.90;;;;;;5035624;28;20121;-75
2023/10/17 12:52:59;;;;;;;2.40;1.48;;;11.90;99.90;;;;;;5020530;28;20044;-75
2023/10/17 12:55:25;;;;;;;4.03;1.50;;;12.00;99.90;;;;;;5024081;28;20045;-75
2023/10/17 12:57:51;;;;;;;6.18;1.63;;;12.00;99.90;;;;;;5033673;28;20071;-75
2023/10/17 13:00:25;;;;;;;4.15;1.48;;;12.00;99.90;;;;;;5059806;28;20099;-75
2023/10/17 13:02:52;;;;;;;3.97;1.67;;;12.00;99.90;;;;;;5022481;28;20050;-75
2023/10/17 13:05:20;;;;;;;4.50;1.30;;;12.00;99.90;;;;;;5036827;28;20033;-75
2023/10/17 13:07:45;;;;;;;5.57;1.83;;;12.00;99.90;;;;;;5040465;28;20053;-76
2023/10/17 13:10:12;;;;;;;4.95;1.65;;;12.10;99.90;;;;;;5042820;28;20384;-75
2023/10/17 13:12:39;;;;;;;5.93;1.60;;;12.10;99.90;;;;;;5040746;28;20144;-75
2023/10/17 13:15:09;;;;;;;4.22;1.90;;;12.10;99.90;;;;;;5025211;28;20060;-75
2023/10/17 13:17:35;;;;;;;4.03;1.63;;;12.10;99.90;;;;;;5052939;28;20431;-75
2023/10/17 13:20:07;;;;;;;4.75;2.05;;;12.10;99.90;;;;;;5038890;28;20167;-75
2023/10/17 13:22:41;;;;;;;3.85;1.52;;;12.10;99.90;;;;;;5038945;28;20052;-75
2023/10/17 13:25:10;;;;;;;3.72;1.80;;;12.10;99.90;;;;;;5038181;28;20190;-75
2023/10/17 13:27:39;;;;;;;3.92;1.63;;;12.00;99.90;;;;;;5051432;28;20045;-74
2023/10/17 13:30:06;;;;;;;5.07;1.70;;;12.00;99.90;;;;;;5041335;28;20815;-75
2023/10/17 13:32:33;;;;;;;5.32;1.80;;;11.90;99.90;;;;;;5037526;28;20076;-75
2023/10/17 13:34:59;;;;;;;4.90;1.77;;;11.90;99.90;;;;;;5040407;28;20053;-75
2023/10/17 13:37:28;;;;;;;6.03;1.95;;;12.00;99.90;;;;;;5038194;28;20069;-75
2023/10/17 13:39:55;;;;;;;5.00;1.67;;;12.00;99.90;;;;;;5042357;28;20049;-75
2023/10/17 13:42:22;;;;;;;5.30;1.75;;;12.00;99.90;;;;;;5040075;28;20053;-74
2023/10/17 13:44:49;;;;;;;3.70;1.30;;;12.00;99.90;;;;;;5029114;28;20595;-75
2023/10/17 13:47:16;;;;;;;5.00;1.60;;;12.00;99.90;;;;;;5040107;28;20055;-75
2023/10/17 13:49:42;;;;;;;5.57;2.00;;;12.00;99.90;;;;;;5044041;28;20128;-76
2023/10/17 13:52:09;;;;;;;3.70;1.50;;;12.00;99.90;;;;;;5040340;28;20587;-76
2023/10/17 13:54:39;;;;;;;5.75;1.50;;;11.90;99.90;;;;;;5058064;28;20053;-75
2023/10/17 13:57:09;;;;;;;3.80;1.27;;;11.90;99.90;;;;;;5059011;28;20033;-74
2023/10/17 13:59:39;;;;;;;3.13;1.25;;;11.90;99.90;;;;;;5044108;28;20099;-74
2023/10/17 14:02:08;;;;;;;4.38;1.50;;;11.90;99.90;;;;;;5023134;28;20491;-74
2023/10/17 14:04:36;;;;;;;5.10;1.73;;;11.90;99.90;;;;;;5040412;28;20159;-74
2023/10/17 14:07:05;;;;;;;4.63;1.50;;;11.80;99.90;;;;;;5042102;28;20421;-75
2023/10/17 14:09:31;;;;;;;4.93;1.60;;;11.80;99.90;;;;;;5019083;28;20040;-74
2023/10/17 14:11:58;;;;;;;3.13;1.45;;;11.80;99.90;;;;;;5039740;28;20048;-74
2023/10/17 14:14:29;;;;;;;3.03;1.30;;;11.80;99.90;;;;;;5041308;28;20051;-75
2023/10/17 14:16:58;;;;;;;4.35;1.70;;;11.70;99.90;;;;;;5027840;28;20076;-75
2023/10/17 14:27:29;;;;;;;3.97;1.45;;;11.70;99.90;;;;;;5042099;28;20045;-75
2023/10/17 14:29:59;;;;;;;2.88;1.23;;;11.80;99.90;;;;;;5031417;28;20518;-74
2023/10/17 14:32:26;;;;;;;3.38;1.25;;;11.80;99.90;;;;;;5038068;28;20041;-74
2023/10/17 14:34:53;;;;;;;3.78;1.40;;;11.80;99.90;;;;;;5026094;28;20118;-74
2023/10/17 14:37:20;;;;;;;2.85;1.00;;;11.80;99.90;;;;;;5024201;28;20037;-74
2023/10/17 14:39:46;;;;;;;3.90;1.63;;;11.80;99.90;;;;;;5039804;28;20198;-75
2023/10/17 14:42:17;;;;;;;3.97;1.50;;;11.70;99.90;;;;;;5036497;28;20053;-74
2023/10/17 14:44:45;;;;;;;5.13;1.77;;;11.80;99.90;;;;;;5056684;28;20104;-75
2023/10/17 14:47:17;;;;;;;4.07;1.45;;;11.70;99.90;;;;;;5039556;28;20570;-74
2023/10/17 14:49:46;;;;;;;2.90;1.00;;;11.70;99.90;;;;;;5032620;28;20381;-75
2023/10/17 14:52:13;;;;;;;3.92;1.33;;;11.70;99.90;;;;;;5042962;28;20033;-75
2023/10/17 14:54:40;;;;;;;7.70;1.63;;;11.70;99.90;;;;;;5025342;28;20081;-75
2023/10/17 14:57:06;;;;;;;3.83;1.38;;;11.60;99.90;;;;;;5026234;28;20041;-74
2023/10/17 14:59:38;;;;;;;2.58;1.30;;;11.60;99.90;;;;;;5043692;28;20099;-74
2023/10/17 15:02:05;;;;;;;3.72;1.42;;;11.60;99.90;;;;;;5056915;28;20045;-74
2023/10/17 15:04:31;;;;;;;3.85;1.60;;;11.50;99.90;;;;;;5021162;28;20106;-73
2023/10/17 15:06:57;;;;;;;5.75;1.73;;;11.50;99.90;;;;;;5018922;28;20503;-74
2023/10/17 15:09:24;;;;;;;3.92;1.60;;;11.50;99.90;;;;;;5026241;28;20526;-74
2023/10/17 15:11:49;;;;;;;5.63;1.70;;;11.50;99.90;;;;;;5057929;28;20417;-74
2023/10/17 15:14:15;;;;;;;5.85;1.60;;;11.40;99.90;;;;;;5038596;28;20550;-74
2023/10/17 15:16:42;;;;;;;4.45;1.50;;;11.40;99.90;;;;;;5035620;28;20064;-74
2023/10/17 15:19:08;;;;;;;3.60;1.52;;;11.40;99.90;;;;;;5041764;28;20041;-74
2023/10/17 15:21:34;;;;;;;3.88;1.80;;;11.30;99.90;;;;;;5025570;28;21542;-74
2023/10/17 15:24:01;;;;;;;3.47;1.50;;;11.30;99.90;;;;;;5043797;28;20446;-79
2023/10/17 15:26:27;;;;;;;2.90;1.42;;;11.30;99.90;;;;;;5038996;28;20403;-73
2023/10/17 15:28:53;;;;;;;3.70;1.60;;;11.20;99.90;;;;;;5036726;28;20084;-75
2023/10/17 15:31:20;;;;;;;4.72;1.70;;;11.20;99.90;;;;;;5040828;28;20033;-74
2023/10/17 15:33:46;;;;;;;3.40;1.70;;;11.10;99.90;;;;;;5027404;28;20049;-74
2023/10/17 15:36:13;;;;;;;3.95;1.65;;;11.10;99.90;;;;;;5037944;28;20044;-74
2023/10/17 15:38:42;;;;;;;3.78;1.50;;;11.00;99.90;;;;;;5040743;28;20117;-74
2023/10/17 15:41:12;;;;;;;4.10;1.70;;;11.00;99.90;;;;;;5040041;28;20045;-74